Binghamton, New York
Current Conditions -  °F | °C
As of 11:53 PM on Wednesday 22 Oct 2014 (Local Time) from KBGM Reporting Station
Light Rain Light Rain  
Wind Chill:   Ceiling: 600
Heat Index:   Visibility: 9mi
Dew Point:   Wind: 15mph
Humidity: 93%   Direction: 330°NNW
Pressure: 29.97"   Gusts: NA
Location:  42.1°N, 75.91°W
Report Text: KBGM 230353Z AUTO 33013KT 9SM -RA OVC006 06/05 A2997 RMK AO2 RAB36 SLP155 P0000 T00610050
Loading
Personal Weather Stations






























Interactive Weather Map
Tropical Storm Tracking
New forecast layout! Learn more

10-Day Weather Forecast

Advertisements
Track Severe Weather on mobile